Angelus Oaks, California
Current Conditions -  °F | °C
As of 12:55 AM on Sunday 21 Dec 2014 (Local Time) from KL35 Reporting Station
Clear Clear  
Wind Chill: 28°   Ceiling: Unl
Heat Index: 28°   Visibility: 10mi
Dew Point: 28°   Wind: 0mph
Humidity: 100%   Direction: NA
Pressure: 30.24"   Gusts: NA
Location:  34.15°N, 116.98°W
Report Text: KL35 210855Z AUTO 00000KT 10SM CLR M02/M02 A3024 RMK AO2
Loading
Personal Weather Stations






























Interactive Weather Map New forecast layout! Learn more

10-Day Weather Forecast

Advertisements
Track Severe Weather on mobile